createdAt,value
2023-05-06T00:00:00.025Z,44.60
2023-05-06T00:00:59.981Z,41.80
2023-05-06T00:02:00.005Z,40.40
2023-05-06T00:02:59.979Z,46.50
2023-05-06T00:04:00.190Z,43.40
2023-05-06T00:04:59.917Z,44.50
2023-05-06T00:05:59.956Z,41.40
2023-05-06T00:07:00.041Z,42.90
2023-05-06T00:07:59.898Z,44.80
2023-05-06T00:08:59.882Z,42.80
2023-05-06T00:09:59.890Z,42.00
2023-05-06T00:10:59.877Z,48.20
2023-05-06T00:11:59.866Z,51.00
2023-05-06T00:12:59.845Z,48.50
2023-05-06T00:13:59.833Z,45.90
2023-05-06T00:14:59.804Z,50.90
2023-05-06T00:15:59.875Z,42.70
2023-05-06T00:16:59.843Z,53.90
2023-05-06T00:17:59.836Z,57.40
2023-05-06T00:18:59.771Z,47.20
2023-05-06T00:19:59.792Z,53.80
2023-05-06T00:20:59.781Z,61.00
2023-05-06T00:21:59.746Z,42.90
2023-05-06T00:22:59.735Z,50.80
2023-05-06T00:23:59.765Z,44.10
2023-05-06T00:24:59.701Z,56.40
2023-05-06T00:25:59.725Z,49.20
2023-05-06T00:26:59.688Z,53.80
2023-05-06T00:27:59.695Z,48.90
2023-05-06T00:28:59.709Z,42.40
2023-05-06T00:29:59.686Z,47.00
2023-05-06T00:30:59.688Z,54.20
2023-05-06T00:31:59.678Z,46.30
2023-05-06T00:32:59.638Z,52.40
2023-05-06T00:33:59.632Z,51.00
2023-05-06T00:34:59.639Z,52.80
2023-05-06T00:35:59.606Z,51.50
2023-05-06T00:36:59.596Z,56.90
2023-05-06T00:37:59.574Z,58.00
2023-05-06T00:38:59.615Z,51.10
2023-05-06T00:39:59.590Z,43.00
2023-05-06T00:40:59.593Z,55.20
2023-05-06T00:41:59.555Z,55.90
2023-05-06T00:42:59.527Z,52.80
2023-05-06T00:43:59.570Z,55.60
2023-05-06T00:44:59.493Z,58.50
2023-05-06T00:45:59.551Z,54.20
2023-05-06T00:46:59.503Z,53.90
2023-05-06T00:47:59.555Z,58.00
2023-05-06T00:48:59.511Z,54.80
2023-05-06T00:49:59.462Z,49.90
2023-05-06T00:50:59.458Z,60.00
2023-05-06T00:51:59.440Z,48.90
2023-05-06T00:52:59.445Z,54.60
2023-05-06T00:53:59.479Z,53.80
2023-05-06T00:54:59.421Z,71.20
2023-05-06T00:55:59.411Z,65.80
2023-05-06T00:56:59.387Z,59.50
2023-05-06T00:57:59.391Z,59.30
2023-05-06T00:58:59.400Z,52.80
2023-05-06T00:59:59.364Z,57.20
2023-05-06T01:00:59.368Z,58.70
2023-05-06T01:01:59.342Z,56.30
2023-05-06T01:02:59.544Z,55.20
2023-05-06T01:03:59.433Z,56.50
2023-05-06T01:04:59.345Z,52.90
2023-05-06T01:05:59.305Z,47.40
2023-05-06T01:06:59.336Z,47.70
2023-05-06T01:07:59.310Z,70.60
2023-05-06T01:08:59.276Z,61.60
2023-05-06T01:09:59.266Z,40.10
2023-05-06T01:10:59.293Z,54.50
2023-05-06T01:11:59.260Z,67.50
2023-05-06T01:12:59.258Z,43.00
2023-05-06T01:13:59.232Z,51.50
2023-05-06T01:14:59.231Z,50.50
2023-05-06T01:15:59.216Z,57.10
2023-05-06T01:16:59.249Z,50.90
2023-05-06T01:17:59.219Z,51.50
2023-05-06T01:18:59.179Z,54.80
2023-05-06T01:19:59.210Z,53.20
2023-05-06T01:20:59.148Z,58.20
2023-05-06T01:21:59.194Z,44.70
2023-05-06T01:22:59.124Z,56.80
2023-05-06T01:23:59.115Z,46.40
2023-05-06T01:24:59.120Z,45.30
2023-05-06T01:25:59.120Z,55.80
2023-05-06T01:26:59.146Z,55.40
2023-05-06T01:27:59.087Z,51.30
2023-05-06T01:28:59.087Z,46.30
2023-05-06T01:29:59.043Z,52.30
2023-05-06T01:30:59.146Z,54.60
2023-05-06T01:31:59.030Z,52.60
2023-05-06T01:32:59.044Z,54.40
2023-05-06T01:33:59.025Z,60.80
2023-05-06T01:34:59.031Z,58.10
2023-05-06T01:35:59.009Z,54.60
2023-05-06T01:36:59.002Z,56.90
2023-05-06T01:37:58.964Z,54.70
2023-05-06T01:38:58.971Z,53.70
2023-05-06T01:39:59.023Z,59.40
2023-05-06T01:40:58.933Z,59.40
2023-05-06T01:41:58.931Z,67.50
2023-05-06T01:42:58.925Z,62.30
2023-05-06T01:43:58.927Z,50.60
2023-05-06T01:44:58.926Z,51.70
2023-05-06T01:45:58.918Z,51.10
2023-05-06T01:46:58.919Z,49.70
2023-05-06T01:47:58.879Z,50.80
2023-05-06T01:48:58.882Z,56.10
2023-05-06T01:49:58.882Z,61.40
2023-05-06T01:50:58.849Z,58.40
2023-05-06T01:51:58.877Z,54.80
2023-05-06T01:52:58.942Z,56.80
2023-05-06T01:53:58.841Z,54.50
2023-05-06T01:54:58.816Z,61.90
2023-05-06T01:55:58.787Z,62.60
2023-05-06T01:56:58.777Z,61.30
2023-05-06T01:57:58.758Z,60.70
2023-05-06T01:58:59.552Z,44.00
2023-05-06T01:59:58.748Z,54.70
2023-05-06T02:00:58.737Z,52.60
2023-05-06T02:01:58.756Z,63.30
2023-05-06T02:02:58.811Z,50.30
2023-05-06T02:03:58.882Z,60.40
2023-05-06T02:04:58.700Z,52.10
2023-05-06T02:05:58.719Z,58.10
2023-05-06T02:06:58.690Z,51.90
2023-05-06T02:07:58.725Z,51.40
2023-05-06T02:08:58.668Z,55.90
2023-05-06T02:09:58.636Z,52.60
2023-05-06T02:10:58.643Z,58.20
2023-05-06T02:11:58.625Z,41.40
2023-05-06T02:12:58.696Z,46.30
2023-05-06T02:13:58.619Z,46.50
2023-05-06T02:14:58.599Z,45.00
2023-05-06T02:15:58.602Z,38.20
2023-05-06T02:16:58.610Z,33.80
2023-05-06T02:17:58.613Z,48.20
2023-05-06T02:18:58.606Z,32.70
2023-05-06T02:19:58.534Z,36.50
2023-05-06T02:20:58.545Z,34.40
2023-05-06T02:21:58.663Z,37.90
2023-05-06T02:22:58.508Z,32.10
2023-05-06T02:23:58.517Z,35.90
2023-05-06T02:24:58.497Z,30.80
2023-05-06T02:25:58.521Z,34.50
2023-05-06T02:26:58.495Z,33.30
2023-05-06T02:27:58.466Z,26.20
2023-05-06T02:28:58.462Z,28.20
2023-05-06T02:29:58.434Z,29.00
2023-05-06T02:30:58.510Z,24.90
2023-05-06T02:31:58.499Z,23.20
2023-05-06T02:32:58.471Z,26.90
2023-05-06T02:33:58.439Z,30.40
2023-05-06T02:34:58.399Z,31.10
2023-05-06T02:35:58.402Z,28.20
2023-05-06T02:36:58.372Z,28.00
2023-05-06T02:37:58.385Z,33.30
2023-05-06T02:38:58.359Z,30.40
2023-05-06T02:39:58.359Z,25.40
2023-05-06T02:40:58.401Z,27.60
2023-05-06T02:41:58.311Z,22.40
2023-05-06T02:42:58.341Z,26.90
2023-05-06T02:43:58.323Z,31.90
2023-05-06T02:44:58.310Z,27.80
2023-05-06T02:45:58.393Z,27.10
2023-05-06T02:46:58.283Z,32.00
2023-05-06T02:47:58.284Z,34.70
2023-05-06T02:48:58.256Z,27.30
2023-05-06T02:49:58.336Z,28.80
2023-05-06T02:50:58.248Z,22.10
2023-05-06T02:51:58.295Z,29.50
2023-05-06T02:52:58.218Z,25.50
2023-05-06T02:53:58.221Z,27.10
2023-05-06T02:54:58.268Z,28.90
2023-05-06T02:55:58.201Z,32.20
2023-05-06T02:56:58.170Z,36.90
2023-05-06T02:57:58.179Z,37.40
2023-05-06T02:58:58.202Z,33.20
2023-05-06T02:59:58.158Z,31.60
2023-05-06T03:00:58.222Z,41.00
2023-05-06T03:01:58.152Z,30.90
2023-05-06T03:02:58.156Z,44.50
2023-05-06T03:03:58.142Z,39.40
2023-05-06T03:04:58.085Z,32.80
2023-05-06T03:05:58.071Z,39.20
2023-05-06T03:06:58.071Z,37.70
2023-05-06T03:07:58.111Z,38.80
2023-05-06T03:08:58.020Z,46.50
2023-05-06T03:09:57.969Z,56.00
2023-05-06T03:10:57.964Z,37.20
2023-05-06T03:11:57.949Z,38.40
2023-05-06T03:12:58.002Z,43.00
2023-05-06T03:13:57.978Z,44.20
2023-05-06T03:14:57.922Z,44.50
2023-05-06T03:15:57.902Z,41.70
2023-05-06T03:16:58.014Z,39.70
2023-05-06T03:17:57.970Z,37.60
2023-05-06T03:18:57.926Z,40.00
2023-05-06T03:19:57.907Z,38.20
2023-05-06T03:20:57.959Z,45.80
2023-05-06T03:21:57.892Z,32.70
2023-05-06T03:22:57.898Z,36.30
2023-05-06T03:23:57.857Z,38.40
2023-05-06T03:24:57.872Z,33.80
2023-05-06T03:25:57.812Z,45.30
2023-05-06T03:26:57.835Z,33.20
2023-05-06T03:27:57.799Z,41.00
2023-05-06T03:28:57.795Z,44.10
2023-05-06T03:29:57.736Z,39.40
2023-05-06T03:30:57.749Z,50.80
2023-05-06T03:31:57.861Z,49.90
2023-05-06T03:32:57.758Z,56.90
2023-05-06T03:33:57.710Z,42.20
2023-05-06T03:34:57.746Z,52.50
2023-05-06T03:35:57.685Z,44.60
2023-05-06T03:36:57.716Z,47.00
2023-05-06T03:37:57.795Z,46.30
2023-05-06T03:38:57.669Z,47.90
2023-05-06T03:39:57.664Z,49.60
2023-05-06T03:40:57.725Z,36.90
2023-05-06T03:41:57.697Z,42.80
2023-05-06T03:42:57.644Z,48.20
2023-05-06T03:43:57.630Z,43.90
2023-05-06T03:44:57.624Z,48.40
2023-05-06T03:45:57.662Z,37.70
2023-05-06T03:46:57.628Z,57.40
2023-05-06T03:47:58.578Z,43.90
2023-05-06T03:48:57.580Z,37.70
2023-05-06T03:49:57.590Z,36.70
2023-05-06T03:50:57.598Z,40.60
2023-05-06T03:51:57.513Z,41.50
2023-05-06T03:52:57.524Z,36.10
2023-05-06T03:53:57.538Z,38.50
2023-05-06T03:54:57.596Z,31.50
2023-05-06T03:55:57.510Z,42.40
2023-05-06T03:56:57.705Z,44.60
2023-05-06T03:57:57.469Z,47.70
2023-05-06T03:58:57.468Z,39.30
2023-05-06T03:59:57.456Z,44.50
2023-05-06T04:00:58.119Z,47.50
2023-05-06T04:01:57.486Z,49.50
2023-05-06T04:02:57.544Z,43.50
2023-05-06T04:03:57.549Z,44.70
2023-05-06T04:04:57.453Z,38.90
2023-05-06T04:05:57.413Z,37.60
2023-05-06T04:06:57.371Z,38.50
2023-05-06T04:07:57.373Z,40.10
2023-05-06T04:08:57.425Z,37.90
2023-05-06T04:09:57.350Z,46.40
2023-05-06T04:10:57.341Z,52.90
2023-05-06T04:11:57.369Z,42.20
2023-05-06T04:12:57.337Z,43.50
2023-05-06T04:13:57.333Z,45.50
2023-05-06T04:14:57.304Z,51.60
2023-05-06T04:15:57.321Z,50.60
2023-05-06T04:16:57.264Z,49.40
2023-05-06T04:17:57.325Z,41.20
2023-05-06T04:18:57.268Z,40.60
2023-05-06T04:19:57.226Z,42.20
2023-05-06T04:20:57.226Z,45.50
2023-05-06T04:21:57.232Z,44.10
2023-05-06T04:22:57.276Z,44.50
2023-05-06T04:23:57.204Z,37.10
2023-05-06T04:24:57.184Z,36.10
2023-05-06T04:25:57.179Z,38.60
2023-05-06T04:26:57.168Z,37.20
2023-05-06T04:27:57.238Z,45.70
2023-05-06T04:28:57.163Z,47.90
2023-05-06T04:29:57.131Z,40.00
2023-05-06T04:30:57.137Z,35.40
2023-05-06T04:31:57.196Z,40.60
2023-05-06T04:32:57.261Z,37.30
2023-05-06T04:33:57.139Z,35.80
2023-05-06T04:34:57.113Z,39.80
2023-05-06T04:35:57.065Z,40.80
2023-05-06T04:36:57.172Z,37.10
2023-05-06T04:37:57.089Z,38.40
2023-05-06T04:38:57.093Z,39.90
2023-05-06T04:39:57.032Z,40.30
2023-05-06T04:40:57.090Z,48.20
2023-05-06T04:41:57.046Z,56.40
2023-05-06T04:42:57.017Z,56.00
2023-05-06T04:43:57.070Z,65.90
2023-05-06T04:44:57.000Z,70.90
2023-05-06T04:45:57.051Z,121.00
2023-05-06T04:46:56.986Z,73.40
2023-05-06T04:47:56.975Z,87.30
2023-05-06T04:48:56.988Z,101.30
2023-05-06T04:49:56.957Z,83.70
2023-05-06T04:50:56.962Z,125.90
2023-05-06T04:51:56.913Z,79.00
2023-05-06T04:52:56.901Z,84.00
2023-05-06T04:53:56.915Z,61.90
2023-05-06T04:54:56.911Z,71.20
2023-05-06T04:55:56.922Z,50.00
2023-05-06T04:56:56.879Z,41.60
2023-05-06T04:57:56.841Z,35.10
2023-05-06T04:58:56.869Z,31.40
2023-05-06T04:59:56.870Z,32.60
2023-05-06T05:00:56.858Z,36.40
2023-05-06T05:01:56.847Z,33.70
2023-05-06T05:02:56.854Z,32.60
2023-05-06T05:03:56.798Z,40.00
2023-05-06T05:04:56.835Z,40.50
2023-05-06T05:05:56.764Z,35.20
2023-05-06T05:06:56.762Z,35.30
2023-05-06T05:07:56.767Z,32.90
2023-05-06T05:08:57.106Z,38.00
2023-05-06T05:09:56.760Z,47.30
2023-05-06T05:10:56.733Z,48.80
2023-05-06T05:11:56.705Z,57.20
2023-05-06T05:12:56.768Z,45.90
2023-05-06T05:13:57.731Z,54.30
2023-05-06T05:14:56.682Z,55.90
2023-05-06T05:15:56.672Z,38.90
2023-05-06T05:16:56.686Z,36.50
2023-05-06T05:17:56.644Z,29.80
2023-05-06T05:18:56.655Z,24.70
2023-05-06T05:19:56.623Z,21.00
2023-05-06T05:20:56.608Z,25.40
2023-05-06T05:21:56.629Z,20.40
2023-05-06T05:22:56.586Z,20.20
2023-05-06T05:23:56.637Z,23.10
2023-05-06T05:24:56.576Z,20.00
2023-05-06T05:25:56.565Z,19.30
2023-05-06T05:26:56.559Z,15.70
2023-05-06T05:27:56.560Z,20.60
2023-05-06T05:28:56.575Z,20.00
2023-05-06T05:29:56.588Z,17.90
2023-05-06T05:30:56.534Z,19.00
2023-05-06T05:31:56.500Z,18.90
2023-05-06T05:32:56.604Z,16.80
2023-05-06T05:33:56.544Z,16.90
2023-05-06T05:34:56.476Z,20.30
2023-05-06T05:35:56.467Z,20.60
2023-05-06T05:36:56.497Z,16.00
2023-05-06T05:37:56.482Z,16.30
2023-05-06T05:38:56.432Z,18.10
2023-05-06T05:39:56.417Z,16.40
2023-05-06T05:40:56.406Z,17.30
2023-05-06T05:41:56.434Z,15.80
2023-05-06T05:42:56.452Z,15.30
2023-05-06T05:43:56.392Z,15.00
2023-05-06T05:44:56.356Z,16.40
2023-05-06T05:45:56.382Z,15.20
2023-05-06T05:46:56.377Z,14.00
2023-05-06T05:47:56.339Z,14.30
2023-05-06T05:48:56.322Z,15.60
2023-05-06T05:49:56.310Z,13.50
2023-05-06T05:50:56.348Z,13.60
2023-05-06T05:51:56.328Z,14.90
2023-05-06T05:52:56.282Z,14.40
2023-05-06T05:53:56.269Z,12.90
2023-05-06T05:54:56.250Z,13.60
2023-05-06T05:55:56.280Z,13.70
2023-05-06T05:56:56.226Z,14.30
2023-05-06T05:57:56.230Z,14.40
2023-05-06T05:58:56.218Z,13.90
2023-05-06T05:59:56.200Z,13.90
2023-05-06T06:00:56.232Z,16.50
2023-05-06T06:01:56.181Z,15.50
2023-05-06T06:02:56.232Z,14.30
2023-05-06T06:03:56.601Z,14.00
2023-05-06T06:04:56.291Z,13.60
2023-05-06T06:05:56.173Z,14.00
2023-05-06T06:06:56.114Z,13.70
2023-05-06T06:07:56.145Z,12.80
2023-05-06T06:08:56.115Z,12.20
2023-05-06T06:09:56.156Z,12.70
2023-05-06T06:10:56.113Z,13.20
2023-05-06T06:11:56.078Z,12.60
2023-05-06T06:12:56.158Z,12.60
2023-05-06T06:13:56.066Z,12.00
2023-05-06T06:14:56.075Z,13.20
2023-05-06T06:15:56.084Z,12.50
2023-05-06T06:16:56.023Z,13.70
2023-05-06T06:17:56.045Z,13.70
2023-05-06T06:18:56.010Z,13.30
2023-05-06T06:19:56.028Z,13.50
2023-05-06T06:20:55.975Z,13.90
2023-05-06T06:21:55.965Z,14.20
2023-05-06T06:22:55.957Z,13.10
2023-05-06T06:23:55.974Z,13.00
2023-05-06T06:24:55.980Z,15.00
2023-05-06T06:25:55.925Z,12.60
2023-05-06T06:26:55.903Z,13.40
2023-05-06T06:27:55.908Z,12.10
2023-05-06T06:28:55.926Z,11.70
2023-05-06T06:29:55.927Z,14.20
2023-05-06T06:30:55.878Z,12.60
2023-05-06T06:31:55.913Z,14.50
2023-05-06T06:32:55.928Z,12.80
2023-05-06T06:33:55.880Z,12.60
2023-05-06T06:34:55.862Z,12.40
2023-05-06T06:35:55.822Z,12.20
2023-05-06T06:36:55.805Z,12.80
2023-05-06T06:37:55.877Z,13.50
2023-05-06T06:38:55.830Z,12.00
2023-05-06T06:39:55.789Z,12.60
2023-05-06T06:40:55.769Z,12.30
2023-05-06T06:41:55.767Z,12.70
2023-05-06T06:42:55.782Z,12.70
2023-05-06T06:43:55.765Z,12.90
2023-05-06T06:44:55.732Z,12.40
2023-05-06T06:45:55.767Z,12.50
2023-05-06T06:46:55.700Z,12.60
2023-05-06T06:47:55.777Z,12.00
2023-05-06T06:48:55.703Z,12.20
2023-05-06T06:49:55.669Z,13.30
2023-05-06T06:50:55.664Z,13.40
2023-05-06T06:51:55.823Z,12.80
2023-05-06T06:52:55.681Z,13.00
2023-05-06T06:53:55.650Z,12.10
2023-05-06T06:54:55.633Z,12.90
2023-05-06T06:55:55.618Z,13.20
2023-05-06T06:56:55.639Z,13.70
2023-05-06T06:57:55.593Z,13.30
2023-05-06T06:58:55.599Z,15.50
2023-05-06T06:59:55.578Z,12.80
2023-05-06T07:00:55.667Z,13.40
2023-05-06T07:01:55.595Z,13.20
2023-05-06T07:02:55.597Z,12.10
2023-05-06T07:03:55.588Z,13.70
2023-05-06T07:04:55.589Z,14.50
2023-05-06T07:05:55.571Z,24.80
2023-05-06T07:06:55.550Z,31.90
2023-05-06T07:07:55.558Z,34.60
2023-05-06T07:08:55.483Z,33.10
2023-05-06T07:09:55.482Z,38.60
2023-05-06T07:10:55.510Z,34.90
2023-05-06T07:11:55.442Z,32.40
2023-05-06T07:12:55.493Z,33.70
2023-05-06T07:13:55.431Z,34.60
2023-05-06T07:14:55.436Z,31.20
2023-05-06T07:15:55.431Z,35.40
2023-05-06T07:16:55.466Z,33.80
2023-05-06T07:17:55.441Z,32.70
2023-05-06T07:18:55.391Z,23.80
2023-05-06T07:19:55.383Z,18.20
2023-05-06T07:20:55.371Z,17.40
2023-05-06T07:21:55.390Z,16.60
2023-05-06T07:22:55.322Z,15.40
2023-05-06T07:23:55.360Z,16.90
2023-05-06T07:24:55.312Z,15.40
2023-05-06T07:25:55.373Z,15.00
2023-05-06T07:26:55.300Z,14.50
2023-05-06T07:27:55.310Z,16.80
2023-05-06T07:28:55.282Z,13.80
2023-05-06T07:29:55.259Z,14.70
2023-05-06T07:30:55.315Z,14.90
2023-05-06T07:31:55.232Z,14.90
2023-05-06T07:32:55.263Z,15.60
2023-05-06T07:33:55.250Z,15.30
2023-05-06T07:34:55.231Z,15.40
2023-05-06T07:35:55.205Z,15.10
2023-05-06T07:36:55.218Z,16.50
2023-05-06T07:37:55.189Z,15.70
2023-05-06T07:38:55.204Z,16.20
2023-05-06T07:39:55.170Z,16.50
2023-05-06T07:40:55.175Z,16.50
2023-05-06T07:41:55.140Z,15.50
2023-05-06T07:42:55.161Z,15.80
2023-05-06T07:43:55.160Z,15.00
2023-05-06T07:44:55.108Z,14.80
2023-05-06T07:45:55.206Z,15.30
2023-05-06T07:46:55.160Z,14.70
2023-05-06T07:47:55.241Z,15.90
2023-05-06T07:48:55.083Z,15.10
2023-05-06T07:49:55.089Z,15.40
2023-05-06T07:50:55.057Z,14.60
2023-05-06T07:51:55.052Z,15.00
2023-05-06T07:52:55.071Z,14.70
2023-05-06T07:53:55.045Z,16.20
2023-05-06T07:54:55.018Z,15.60
2023-05-06T07:55:54.999Z,14.80
2023-05-06T07:56:55.008Z,13.70
2023-05-06T07:57:55.019Z,14.10
2023-05-06T07:58:54.982Z,12.90
2023-05-06T07:59:54.958Z,14.80
2023-05-06T08:00:54.937Z,12.90
2023-05-06T08:01:54.976Z,13.00
2023-05-06T08:02:54.967Z,12.40
2023-05-06T08:03:55.048Z,11.30
2023-05-06T08:04:55.072Z,11.80
2023-05-06T08:05:54.895Z,12.00
2023-05-06T08:06:54.894Z,11.60
2023-05-06T08:07:54.914Z,10.70
2023-05-06T08:08:54.888Z,10.90
2023-05-06T08:09:54.879Z,10.80
2023-05-06T08:10:54.836Z,10.90
2023-05-06T08:11:54.957Z,10.50
2023-05-06T08:12:54.922Z,11.30
2023-05-06T08:13:54.829Z,10.20
2023-05-06T08:14:54.807Z,10.80
2023-05-06T08:15:54.842Z,9.20
2023-05-06T08:16:54.789Z,10.30
2023-05-06T08:17:55.254Z,10.20
2023-05-06T08:18:54.806Z,10.90
2023-05-06T08:19:54.764Z,10.40
2023-05-06T08:20:54.755Z,10.80
2023-05-06T08:21:54.760Z,10.80
2023-05-06T08:22:54.717Z,9.90
2023-05-06T08:23:54.724Z,10.20
2023-05-06T08:24:54.731Z,9.70
2023-05-06T08:25:54.730Z,9.80
2023-05-06T08:26:54.696Z,9.90
2023-05-06T08:27:54.681Z,9.60
2023-05-06T08:28:54.673Z,9.90
2023-05-06T08:29:54.683Z,10.50
2023-05-06T08:30:54.673Z,9.50
2023-05-06T08:31:54.679Z,10.20
2023-05-06T08:32:54.667Z,9.50
2023-05-06T08:33:55.037Z,9.90
2023-05-06T08:34:54.622Z,9.20
2023-05-06T08:35:54.611Z,9.90
2023-05-06T08:36:54.579Z,10.40
2023-05-06T08:37:54.572Z,10.60
2023-05-06T08:38:54.592Z,9.80
2023-05-06T08:39:54.549Z,10.60
2023-05-06T08:40:54.592Z,9.90
2023-05-06T08:41:54.563Z,10.60
2023-05-06T08:42:54.532Z,10.00
2023-05-06T08:43:54.564Z,10.30
2023-05-06T08:44:54.491Z,9.30
2023-05-06T08:45:54.528Z,10.10
2023-05-06T08:46:54.477Z,9.40
2023-05-06T08:47:54.531Z,10.80
2023-05-06T08:48:54.490Z,8.70
2023-05-06T08:49:54.450Z,9.10
2023-05-06T08:50:54.446Z,9.70
2023-05-06T08:51:54.442Z,8.80
2023-05-06T08:52:54.447Z,7.70
2023-05-06T08:53:54.637Z,9.10
2023-05-06T08:54:54.395Z,10.10
2023-05-06T08:55:54.398Z,8.70
2023-05-06T08:56:54.415Z,8.10
2023-05-06T08:57:54.408Z,7.70
2023-05-06T08:58:54.380Z,9.20
2023-05-06T08:59:54.353Z,9.00
2023-05-06T09:00:54.382Z,8.90
2023-05-06T09:01:54.476Z,7.50
2023-05-06T09:02:54.441Z,9.60
2023-05-06T09:03:54.358Z,8.70
2023-05-06T09:04:54.329Z,9.00
2023-05-06T09:05:54.334Z,8.00
2023-05-06T09:06:54.365Z,7.80
2023-05-06T09:07:54.310Z,7.70
2023-05-06T09:08:54.309Z,7.40
2023-05-06T09:09:54.313Z,8.60
2023-05-06T09:10:54.276Z,7.80
2023-05-06T09:11:54.250Z,8.50
2023-05-06T09:12:54.269Z,8.20
2023-05-06T09:13:54.278Z,10.00
2023-05-06T09:14:54.260Z,9.40
2023-05-06T09:15:54.218Z,8.40
2023-05-06T09:16:54.280Z,7.60
2023-05-06T09:17:54.254Z,8.00
2023-05-06T09:18:54.201Z,7.10
2023-05-06T09:19:54.181Z,7.00
2023-05-06T09:20:54.208Z,8.50
2023-05-06T09:21:54.231Z,8.10
2023-05-06T09:22:54.159Z,8.70
2023-05-06T09:23:54.171Z,7.80
2023-05-06T09:24:54.180Z,9.40
2023-05-06T09:25:54.150Z,8.10
2023-05-06T09:26:54.113Z,7.90
2023-05-06T09:27:54.125Z,7.30
2023-05-06T09:28:54.120Z,8.00
2023-05-06T09:29:54.119Z,7.80
2023-05-06T09:30:54.116Z,7.20
2023-05-06T09:31:55.592Z,7.70
2023-05-06T09:32:54.079Z,8.30
2023-05-06T09:33:54.100Z,8.10
2023-05-06T09:34:54.601Z,6.90
2023-05-06T09:37:04.186Z,7.90
2023-05-06T09:38:07.085Z,7.40
2023-05-06T09:39:05.194Z,7.60
2023-05-06T09:40:05.169Z,9.10
2023-05-06T09:41:05.161Z,8.80
2023-05-06T09:42:05.101Z,6.90
2023-05-06T09:43:05.139Z,7.90
2023-05-06T09:44:05.104Z,8.40
2023-05-06T09:45:05.132Z,7.30
2023-05-06T09:46:05.176Z,7.30
2023-05-06T09:47:05.086Z,8.30
2023-05-06T09:48:05.086Z,7.80
2023-05-06T09:49:05.069Z,8.60
2023-05-06T09:50:05.082Z,7.70
2023-05-06T09:51:05.079Z,5.80
2023-05-06T09:52:05.004Z,6.60
2023-05-06T09:53:05.022Z,6.30
2023-05-06T09:54:05.029Z,6.20
2023-05-06T09:55:05.009Z,7.40
2023-05-06T09:56:05.000Z,7.00
2023-05-06T09:57:04.976Z,6.80
2023-05-06T09:58:04.983Z,7.30
2023-05-06T09:59:05.009Z,8.60
2023-05-06T10:00:04.926Z,9.00
2023-05-06T10:01:04.921Z,8.70
2023-05-06T10:02:04.985Z,7.70
2023-05-06T10:03:05.052Z,7.80
2023-05-06T10:04:05.215Z,9.60
2023-05-06T10:05:04.961Z,8.80
2023-05-06T10:06:04.862Z,8.20
2023-05-06T10:07:04.862Z,7.00
2023-05-06T10:08:08.320Z,8.70
2023-05-06T10:09:04.852Z,8.30
2023-05-06T10:10:04.845Z,8.80
2023-05-06T10:11:04.861Z,8.10
2023-05-06T10:12:04.850Z,7.70
2023-05-06T10:13:04.911Z,8.10
2023-05-06T10:14:04.811Z,8.50
2023-05-06T10:15:04.795Z,8.60
2023-05-06T10:16:04.827Z,7.90
2023-05-06T10:17:04.815Z,8.70
2023-05-06T10:18:04.866Z,8.70
2023-05-06T10:19:04.821Z,8.40
2023-05-06T10:20:04.772Z,8.40
2023-05-06T10:21:04.744Z,9.80
2023-05-06T10:22:05.740Z,7.40
2023-05-06T10:23:04.712Z,8.40
2023-05-06T10:24:04.723Z,7.60
2023-05-06T10:25:04.750Z,6.40
2023-05-06T10:26:04.788Z,7.80
2023-05-06T10:27:04.727Z,8.50
2023-05-06T10:28:06.154Z,8.10
2023-05-06T10:29:04.732Z,7.40
2023-05-06T10:30:04.705Z,8.50
2023-05-06T10:31:04.751Z,8.40
2023-05-06T10:32:04.744Z,8.60
2023-05-06T10:33:04.690Z,6.60
2023-05-06T10:34:04.627Z,7.60
2023-05-06T10:35:04.598Z,7.20
2023-05-06T10:36:04.667Z,7.50
2023-05-06T10:37:04.596Z,8.30
2023-05-06T10:38:05.234Z,9.60
2023-05-06T10:39:06.060Z,7.00
2023-05-06T10:40:06.325Z,8.70
2023-05-06T10:41:07.065Z,6.50
2023-05-06T10:42:06.931Z,7.90
2023-05-06T10:43:04.512Z,8.10
2023-05-06T10:44:04.529Z,8.60
2023-05-06T10:45:04.554Z,7.40
2023-05-06T10:46:04.557Z,7.00
2023-05-06T10:47:04.549Z,7.30
2023-05-06T10:48:04.496Z,7.00
2023-05-06T10:49:04.490Z,6.70
2023-05-06T10:50:04.493Z,7.00
2023-05-06T10:51:04.450Z,9.30
2023-05-06T10:52:04.434Z,8.50
2023-05-06T10:53:04.425Z,8.20
2023-05-06T10:54:04.472Z,10.80
2023-05-06T10:55:04.438Z,8.20
2023-05-06T10:56:04.411Z,8.50
2023-05-06T10:57:04.419Z,8.60
2023-05-06T10:58:04.396Z,8.40
2023-05-06T10:59:04.388Z,10.30
2023-05-06T11:00:04.390Z,7.90
2023-05-06T11:01:04.429Z,8.70
2023-05-06T11:02:04.401Z,7.00
2023-05-06T11:03:04.376Z,7.20
2023-05-06T11:04:04.339Z,9.80
2023-05-06T11:05:04.306Z,8.00
2023-05-06T11:06:04.338Z,8.50
2023-05-06T11:07:04.285Z,7.90
2023-05-06T11:08:04.287Z,7.50
2023-05-06T11:09:04.314Z,8.10
2023-05-06T11:10:04.263Z,8.00
2023-05-06T11:11:04.262Z,8.70
2023-05-06T11:12:04.230Z,7.80
2023-05-06T11:13:04.254Z,7.80
2023-05-06T11:14:04.287Z,6.70
2023-05-06T11:15:04.233Z,8.50
2023-05-06T11:16:04.301Z,7.00
2023-05-06T11:17:04.346Z,7.10
2023-05-06T11:18:04.283Z,7.30
2023-05-06T11:19:04.195Z,7.90
2023-05-06T11:20:04.167Z,8.10
2023-05-06T11:21:04.157Z,6.90
2023-05-06T11:22:04.157Z,8.80
2023-05-06T11:23:04.173Z,8.70
2023-05-06T11:24:04.144Z,7.00
2023-05-06T11:25:04.104Z,9.00
2023-05-06T11:26:04.132Z,8.80
2023-05-06T11:27:04.175Z,7.10
2023-05-06T11:28:04.102Z,7.00
2023-05-06T11:29:04.125Z,7.80
2023-05-06T11:30:04.068Z,7.00
2023-05-06T11:31:04.092Z,7.60
2023-05-06T11:32:04.069Z,8.30
2023-05-06T11:33:05.502Z,8.60
2023-05-06T11:34:04.091Z,7.80
2023-05-06T11:35:03.985Z,7.40
2023-05-06T11:36:04.044Z,8.10
2023-05-06T11:37:04.044Z,7.90
2023-05-06T11:38:04.037Z,8.50
2023-05-06T11:39:05.261Z,8.30
2023-05-06T11:40:03.967Z,6.90
2023-05-06T11:41:03.965Z,7.30
2023-05-06T11:42:03.962Z,7.30
2023-05-06T11:43:03.940Z,8.00
2023-05-06T11:44:03.917Z,6.90
2023-05-06T11:45:03.894Z,7.00
2023-05-06T11:46:03.984Z,7.20
2023-05-06T11:47:03.888Z,8.10
2023-05-06T11:48:03.908Z,9.00
2023-05-06T11:49:03.894Z,6.30
2023-05-06T11:50:03.851Z,8.80
2023-05-06T11:51:03.890Z,8.60
2023-05-06T11:52:03.865Z,7.80
2023-05-06T11:53:03.869Z,9.30
2023-05-06T11:54:03.845Z,8.20
2023-05-06T11:55:03.853Z,9.90
2023-05-06T11:56:03.844Z,8.00
2023-05-06T11:57:03.770Z,7.70
2023-05-06T11:58:03.765Z,8.30
2023-05-06T11:59:03.788Z,7.50
2023-05-06T12:00:03.775Z,8.70
2023-05-06T12:01:03.721Z,8.10
2023-05-06T12:02:03.721Z,8.60
2023-05-06T12:03:03.745Z,8.50
2023-05-06T12:04:03.839Z,7.80
2023-05-06T12:05:03.758Z,8.50
2023-05-06T12:06:03.704Z,8.50
2023-05-06T12:07:03.709Z,9.30
2023-05-06T12:08:06.390Z,9.10
2023-05-06T12:09:03.711Z,8.80
2023-05-06T12:10:03.673Z,9.20
2023-05-06T12:11:03.619Z,8.10
2023-05-06T12:12:03.624Z,9.40
2023-05-06T12:13:03.632Z,9.10
2023-05-06T12:14:03.626Z,9.00
2023-05-06T12:15:03.605Z,8.90
2023-05-06T12:16:03.577Z,8.10
2023-05-06T12:17:03.585Z,7.40
2023-05-06T12:18:03.616Z,8.00
2023-05-06T12:19:03.604Z,7.90
2023-05-06T12:20:03.569Z,8.70
2023-05-06T12:21:03.704Z,8.80
2023-05-06T12:22:03.636Z,9.30
2023-05-06T12:23:03.603Z,7.90
2023-05-06T12:24:03.618Z,6.50
2023-05-06T12:25:03.496Z,8.90
2023-05-06T12:26:03.464Z,8.60
2023-05-06T12:27:03.623Z,8.50
2023-05-06T12:28:03.804Z,9.10
2023-05-06T12:29:03.473Z,8.70
2023-05-06T12:30:03.440Z,8.20
2023-05-06T12:31:03.427Z,8.80
2023-05-06T12:32:03.517Z,7.40
2023-05-06T12:33:03.518Z,9.00
2023-05-06T12:34:03.457Z,8.00
2023-05-06T12:35:03.388Z,6.70
2023-05-06T12:36:03.380Z,7.00
2023-05-06T12:37:03.387Z,7.90
2023-05-06T12:38:03.396Z,8.10
2023-05-06T12:39:03.344Z,7.80
2023-05-06T12:40:03.357Z,8.10
2023-05-06T12:41:03.312Z,9.70
2023-05-06T12:42:03.490Z,8.00
2023-05-06T12:43:03.353Z,8.00
2023-05-06T12:44:03.298Z,7.50
2023-05-06T12:45:03.280Z,8.00
2023-05-06T12:46:03.368Z,6.40
2023-05-06T12:47:03.304Z,7.60
2023-05-06T12:48:03.276Z,8.80
2023-05-06T12:49:03.388Z,7.90
2023-05-06T12:50:03.380Z,7.50
2023-05-06T12:51:03.242Z,8.50
2023-05-06T12:52:03.280Z,8.90
2023-05-06T12:53:03.219Z,8.10
2023-05-06T12:54:03.184Z,8.50
2023-05-06T12:55:03.207Z,9.10
2023-05-06T12:56:03.189Z,8.00
2023-05-06T12:57:03.150Z,9.00
2023-05-06T12:58:03.137Z,6.90
2023-05-06T12:59:03.138Z,8.10
2023-05-06T13:00:03.104Z,8.70
2023-05-06T13:01:03.156Z,9.90
2023-05-06T13:02:03.144Z,8.10